createdAt,value
2019-01-20T00:03:29.297Z,56.53
2019-01-20T00:08:25.095Z,42.97
2019-01-20T00:13:20.737Z,33.67
2019-01-20T00:18:19.640Z,30.97
2019-01-20T00:23:15.821Z,25.77
2019-01-20T00:28:11.493Z,25.00
2019-01-20T00:33:07.106Z,26.50
2019-01-20T00:38:02.710Z,30.63
2019-01-20T00:42:58.409Z,28.27
2019-01-20T00:47:54.034Z,29.47
2019-01-20T00:52:49.701Z,26.73
2019-01-20T01:02:47.472Z,24.37
2019-01-20T01:07:43.073Z,24.73
2019-01-20T01:12:39.754Z,17.60
2019-01-20T01:17:36.723Z,19.10
2019-01-20T01:22:32.619Z,17.77
2019-01-20T01:27:28.419Z,18.57
2019-01-20T01:33:49.026Z,16.10
2019-01-20T01:38:44.843Z,18.13
2019-01-20T01:43:42.193Z,21.43
2019-01-20T01:48:38.088Z,21.10
2019-01-20T01:53:34.764Z,22.60
2019-01-20T01:58:30.397Z,19.80
2019-01-20T02:03:26.276Z,22.73
2019-01-20T02:08:22.185Z,18.63
2019-01-20T02:13:21.604Z,19.57
2019-01-20T02:18:17.464Z,22.43
2019-01-20T02:23:14.684Z,19.77
2019-01-20T02:28:10.504Z,18.00
2019-01-20T02:33:06.305Z,20.93
2019-01-20T10:21:09.188Z,14.07
2019-01-20T10:26:05.083Z,13.00
2019-01-20T10:36:06.156Z,14.43
2019-01-20T10:41:41.518Z,15.43
2019-01-20T10:46:38.810Z,11.47
2019-01-20T10:51:34.526Z,12.47
2019-01-20T10:56:30.293Z,14.13
2019-01-20T11:01:26.176Z,12.77
2019-01-20T11:06:21.951Z,9.73
2019-01-20T11:11:17.896Z,10.53
2019-01-20T11:16:14.696Z,9.67
2019-01-20T11:21:10.701Z,7.57
2019-01-20T11:26:06.904Z,11.97
2019-01-20T11:31:03.109Z,8.77
2019-01-20T11:35:59.007Z,9.87
2019-01-20T11:40:55.022Z,11.27
2019-01-20T11:45:51.127Z,13.07
2019-01-20T11:50:47.111Z,11.70
2019-01-20T11:55:42.889Z,10.60
2019-01-20T12:00:39.527Z,11.37
2019-01-20T12:05:37.044Z,11.83
2019-01-20T12:10:32.851Z,11.47
2019-01-20T12:15:28.650Z,11.17
2019-01-20T12:20:25.565Z,11.00
2019-01-20T12:25:21.487Z,12.60
2019-01-20T12:30:20.395Z,10.23
2019-01-20T12:35:16.244Z,11.90
2019-01-20T12:40:15.648Z,12.83
2019-01-20T12:45:11.622Z,9.70
2019-01-20T12:50:09.412Z,10.10
2019-01-20T12:55:05.643Z,11.53
2019-01-20T13:00:01.394Z,10.07
2019-01-20T13:04:57.151Z,10.43
2019-01-20T13:09:54.235Z,12.37
2019-01-20T13:14:50.044Z,12.23
2019-01-20T13:19:45.900Z,12.07
2019-01-20T13:24:41.630Z,11.57
2019-01-20T13:29:37.455Z,12.93
2019-01-20T13:34:33.243Z,12.43
2019-01-20T13:39:28.995Z,14.13
2019-01-20T13:44:24.759Z,14.97
2019-01-20T13:49:20.542Z,17.10
2019-01-20T13:54:16.323Z,16.47
2019-01-20T13:59:12.072Z,15.70
2019-01-20T14:04:07.852Z,14.43
2019-01-20T14:09:05.703Z,14.67
2019-01-20T14:14:01.787Z,14.90
2019-01-20T14:18:57.570Z,17.63
2019-01-20T14:23:53.640Z,17.80
2019-01-20T14:28:49.705Z,19.80
2019-01-20T14:33:46.145Z,20.50
2019-01-20T14:38:42.100Z,23.23
2019-01-20T14:43:39.426Z,22.20
2019-01-20T14:48:35.433Z,22.97
2019-01-20T14:53:31.178Z,22.63
2019-01-20T14:58:30.211Z,23.57
2019-01-20T15:03:26.247Z,24.47
2019-01-20T15:08:23.280Z,24.93
2019-01-20T15:13:19.671Z,26.87
2019-01-20T15:18:16.234Z,31.40
2019-01-20T15:23:12.476Z,29.57
2019-01-20T15:28:09.729Z,32.20
2019-01-20T15:33:06.300Z,29.07
2019-01-20T15:38:02.384Z,29.43
2019-01-20T15:42:58.758Z,31.67
2019-01-20T15:47:54.708Z,58.63
2019-01-20T15:52:52.485Z,417.50
2019-01-20T15:57:48.321Z,423.00
2019-01-20T16:02:44.285Z,226.47
2019-01-20T16:07:40.275Z,104.60
2019-01-20T16:12:36.202Z,52.37
2019-01-20T16:17:32.162Z,38.30
2019-01-20T16:22:28.123Z,35.20
2019-01-20T16:27:24.060Z,84.10
2019-01-20T16:32:19.869Z,53.63
2019-01-20T16:37:15.696Z,39.73
2019-01-20T16:42:11.524Z,35.20
2019-01-20T16:47:07.371Z,32.60
2019-01-20T16:52:03.201Z,31.30
2019-01-20T16:56:59.042Z,32.67
2019-01-20T17:01:54.848Z,39.53
2019-01-20T17:06:50.837Z,77.23
2019-01-20T17:11:46.970Z,53.17
2019-01-20T17:16:42.809Z,72.77
2019-01-20T17:21:39.512Z,100.13
2019-01-20T17:26:36.500Z,72.73
2019-01-20T17:31:32.303Z,56.23
2019-01-20T17:36:28.196Z,54.63
2019-01-20T17:41:23.995Z,76.77
2019-01-20T17:46:19.582Z,42.40
2019-01-20T17:51:15.214Z,46.13
2019-01-20T17:56:10.878Z,49.90
2019-01-20T18:01:06.720Z,37.03
2019-01-20T18:06:03.097Z,41.27
2019-01-20T18:10:58.850Z,40.37
2019-01-20T18:15:55.022Z,34.97
2019-01-20T18:20:51.134Z,41.60
2019-01-20T18:25:50.138Z,44.07
2019-01-20T18:30:46.105Z,37.50
2019-01-20T18:35:41.986Z,36.83
2019-01-20T18:40:40.212Z,38.50
2019-01-20T18:45:37.324Z,36.40
2019-01-20T18:50:35.121Z,39.97
2019-01-20T18:55:30.966Z,41.50
2019-01-20T19:00:29.189Z,37.77
2019-01-20T19:05:27.061Z,38.70
2019-01-20T19:10:22.859Z,38.33
2019-01-20T19:15:19.682Z,40.37
2019-01-20T19:20:17.678Z,39.80
2019-01-20T19:25:13.478Z,37.77
2019-01-20T19:30:15.922Z,44.97
2019-01-20T19:35:12.482Z,36.17
2019-01-20T19:40:09.545Z,45.60
2019-01-20T19:45:09.798Z,47.40
2019-01-20T19:54:13.741Z,42.57
2019-01-20T19:59:09.578Z,44.57
2019-01-20T20:04:05.617Z,39.43
2019-01-20T20:09:01.577Z,40.80
2019-01-20T20:13:59.101Z,44.90
2019-01-20T20:18:54.881Z,83.50
2019-01-20T20:23:50.744Z,48.40
2019-01-20T20:28:46.503Z,46.33
2019-01-20T20:33:44.593Z,51.63
2019-01-20T20:38:40.445Z,64.33
2019-01-20T20:43:36.265Z,53.13
2019-01-20T20:48:32.290Z,43.20
2019-01-20T20:53:28.148Z,41.20
2019-01-20T20:58:23.899Z,46.07
2019-01-20T21:03:22.149Z,46.73
2019-01-20T21:08:17.960Z,55.60
2019-01-20T21:13:13.683Z,58.10
2019-01-20T21:18:10.605Z,58.77
2019-01-20T21:23:12.077Z,63.53
2019-01-20T21:28:03.958Z,68.07
2019-01-20T21:32:59.872Z,62.03
2019-01-20T21:37:56.839Z,65.80
2019-01-20T21:42:52.683Z,64.37
2019-01-20T21:47:48.548Z,69.57
2019-01-20T21:52:44.350Z,65.33
2019-01-20T21:57:40.242Z,62.50
2019-01-20T22:02:36.222Z,62.37
2019-01-20T22:07:31.999Z,61.63
2019-01-20T22:12:27.683Z,61.07
2019-01-20T22:17:23.588Z,61.63
2019-01-20T22:22:19.293Z,57.03
2019-01-20T22:27:14.985Z,56.30
2019-01-20T22:32:10.576Z,53.07
2019-01-20T22:37:06.283Z,56.33
2019-01-20T22:42:02.036Z,53.60
2019-01-20T22:47:00.231Z,55.83
2019-01-20T22:51:54.934Z,52.93
2019-01-20T22:56:50.633Z,55.67
2019-01-20T23:01:46.362Z,52.80
2019-01-20T23:06:42.131Z,50.00
2019-01-20T23:11:37.832Z,50.80
2019-01-20T23:16:33.478Z,47.87
2019-01-20T23:21:29.199Z,47.27
2019-01-20T23:26:24.892Z,55.27
2019-01-20T23:31:20.537Z,52.47
2019-01-20T23:36:16.229Z,49.53
2019-01-20T23:41:11.896Z,45.77
2019-01-20T23:46:07.630Z,48.50
2019-01-20T23:51:03.359Z,47.73
2019-01-20T23:55:59.042Z,49.17
